sensor_id;sensor_type;location;lat;lon;timestamp;temperature;humidity
7317;DHT22;3699;51.462;6.696;2023-04-24T00:00:37;11.90;99.90
7317;DHT22;3699;51.462;6.696;2023-04-24T00:03:06;12.10;99.90
7317;DHT22;3699;51.462;6.696;2023-04-24T00:08:01;11.90;99.90
7317;DHT22;3699;51.462;6.696;2023-04-24T00:12:55;12.00;99.90
7317;DHT22;3699;51.462;6.696;2023-04-24T00:15:22;11.80;99.90
7317;DHT22;3699;51.462;6.696;2023-04-24T00:17:49;11.90;99.90
7317;DHT22;3699;51.462;6.696;2023-04-24T00:20:16;12.40;99.90
7317;DHT22;3699;51.462;6.696;2023-04-24T00:22:42;12.20;99.90
7317;DHT22;3699;51.462;6.696;2023-04-24T00:25:10;12.00;99.90
7317;DHT22;3699;51.462;6.696;2023-04-24T00:27:37;12.00;99.90
7317;DHT22;3699;51.462;6.696;2023-04-24T00:30:05;11.30;99.90
7317;DHT22;3699;51.462;6.696;2023-04-24T00:32:32;11.70;99.90
7317;DHT22;3699;51.462;6.696;2023-04-24T00:34:58;11.70;99.90
7317;DHT22;3699;51.462;6.696;2023-04-24T00:39:52;11.90;99.90
7317;DHT22;3699;51.462;6.696;2023-04-24T00:42:20;11.90;99.90
7317;DHT22;3699;51.462;6.696;2023-04-24T00:44:47;11.70;99.90
7317;DHT22;3699;51.462;6.696;2023-04-24T00:47:14;11.10;99.90
7317;DHT22;3699;51.462;6.696;2023-04-24T00:49:41;11.70;99.90
7317;DHT22;3699;51.462;6.696;2023-04-24T00:54:36;11.50;99.90
7317;DHT22;3699;51.462;6.696;2023-04-24T00:59:31;11.50;99.90
7317;DHT22;3699;51.462;6.696;2023-04-24T01:01:58;11.40;99.90
7317;DHT22;3699;51.462;6.696;2023-04-24T01:06:53;11.30;99.90
7317;DHT22;3699;51.462;6.696;2023-04-24T01:09:21;11.30;99.90
7317;DHT22;3699;51.462;6.696;2023-04-24T01:11:49;11.40;99.90
7317;DHT22;3699;51.462;6.696;2023-04-24T01:16:45;11.10;99.90
7317;DHT22;3699;51.462;6.696;2023-04-24T01:19:13;11.20;99.90
7317;DHT22;3699;51.462;6.696;2023-04-24T01:21:42;11.20;99.90
7317;DHT22;3699;51.462;6.696;2023-04-24T01:24:11;11.10;99.90
7317;DHT22;3699;51.462;6.696;2023-04-24T01:29:05;10.90;99.90
7317;DHT22;3699;51.462;6.696;2023-04-24T01:31:32;11.20;99.90
7317;DHT22;3699;51.462;6.696;2023-04-24T01:34:00;10.90;99.90
7317;DHT22;3699;51.462;6.696;2023-04-24T01:36:27;11.20;99.90
7317;DHT22;3699;51.462;6.696;2023-04-24T01:38:55;10.80;99.90
7317;DHT22;3699;51.462;6.696;2023-04-24T01:41:23;10.90;99.90
7317;DHT22;3699;51.462;6.696;2023-04-24T01:43:51;11.10;99.90
7317;DHT22;3699;51.462;6.696;2023-04-24T01:46:18;11.10;99.90
7317;DHT22;3699;51.462;6.696;2023-04-24T01:48:46;11.10;99.90
7317;DHT22;3699;51.462;6.696;2023-04-24T01:51:12;11.10;99.90
7317;DHT22;3699;51.462;6.696;2023-04-24T01:53:39;11.20;99.90
7317;DHT22;3699;51.462;6.696;2023-04-24T01:58:35;11.00;99.90
7317;DHT22;3699;51.462;6.696;2023-04-24T02:03:29;11.10;99.90
7317;DHT22;3699;51.462;6.696;2023-04-24T02:05:56;10.90;99.90
7317;DHT22;3699;51.462;6.696;2023-04-24T02:08:23;11.20;99.90
7317;DHT22;3699;51.462;6.696;2023-04-24T02:10:49;11.30;99.90
7317;DHT22;3699;51.462;6.696;2023-04-24T02:13:16;11.00;99.90
7317;DHT22;3699;51.462;6.696;2023-04-24T02:15:44;11.30;99.90
7317;DHT22;3699;51.462;6.696;2023-04-24T02:18:11;10.40;99.90
7317;DHT22;3699;51.462;6.696;2023-04-24T02:20:38;10.90;99.90
7317;DHT22;3699;51.462;6.696;2023-04-24T02:27:59;11.10;99.90
7317;DHT22;3699;51.462;6.696;2023-04-24T02:30:25;11.00;99.90
7317;DHT22;3699;51.462;6.696;2023-04-24T02:32:53;11.20;99.90
7317;DHT22;3699;51.462;6.696;2023-04-24T02:35:20;11.10;99.90
7317;DHT22;3699;51.462;6.696;2023-04-24T02:37:47;11.00;99.90
7317;DHT22;3699;51.462;6.696;2023-04-24T02:40:14;10.80;99.90
7317;DHT22;3699;51.462;6.696;2023-04-24T02:45:08;10.90;99.90
7317;DHT22;3699;51.462;6.696;2023-04-24T02:47:35;10.50;99.90
7317;DHT22;3699;51.462;6.696;2023-04-24T02:50:04;11.00;99.90
7317;DHT22;3699;51.462;6.696;2023-04-24T02:54:58;10.90;99.90
7317;DHT22;3699;51.462;6.696;2023-04-24T03:02:19;10.90;99.90
7317;DHT22;3699;51.462;6.696;2023-04-24T03:04:46;10.60;99.90
7317;DHT22;3699;51.462;6.696;2023-04-24T03:07:14;10.80;99.90
7317;DHT22;3699;51.462;6.696;2023-04-24T03:09:41;11.00;99.90
7317;DHT22;3699;51.462;6.696;2023-04-24T03:14:35;10.90;99.90
7317;DHT22;3699;51.462;6.696;2023-04-24T03:17:02;10.90;99.90
7317;DHT22;3699;51.462;6.696;2023-04-24T03:21:56;11.10;99.90
7317;DHT22;3699;51.462;6.696;2023-04-24T03:24:24;10.90;99.90
7317;DHT22;3699;51.462;6.696;2023-04-24T03:26:53;10.80;99.90
7317;DHT22;3699;51.462;6.696;2023-04-24T03:29:22;10.70;99.90
7317;DHT22;3699;51.462;6.696;2023-04-24T03:34:16;10.80;99.90
7317;DHT22;3699;51.462;6.696;2023-04-24T03:39:09;10.70;99.90
7317;DHT22;3699;51.462;6.696;2023-04-24T03:41:38;11.00;99.90
7317;DHT22;3699;51.462;6.696;2023-04-24T03:46:32;10.80;99.90
7317;DHT22;3699;51.462;6.696;2023-04-24T03:48:58;10.80;99.90
7317;DHT22;3699;51.462;6.696;2023-04-24T03:53:53;10.70;99.90
7317;DHT22;3699;51.462;6.696;2023-04-24T03:56:20;10.80;99.90
7317;DHT22;3699;51.462;6.696;2023-04-24T03:58:48;10.20;99.90
7317;DHT22;3699;51.462;6.696;2023-04-24T04:01:15;10.90;99.90
7317;DHT22;3699;51.462;6.696;2023-04-24T04:06:10;10.90;99.90
7317;DHT22;3699;51.462;6.696;2023-04-24T04:11:05;11.00;99.90
7317;DHT22;3699;51.462;6.696;2023-04-24T04:16:00;11.00;99.90
7317;DHT22;3699;51.462;6.696;2023-04-24T04:18:27;11.10;99.90
7317;DHT22;3699;51.462;6.696;2023-04-24T04:25:49;10.70;99.90
7317;DHT22;3699;51.462;6.696;2023-04-24T04:28:17;10.90;99.90
7317;DHT22;3699;51.462;6.696;2023-04-24T04:33:13;10.80;99.90
7317;DHT22;3699;51.462;6.696;2023-04-24T04:35:40;10.70;99.90
7317;DHT22;3699;51.462;6.696;2023-04-24T04:38:07;10.70;99.90
7317;DHT22;3699;51.462;6.696;2023-04-24T04:40:36;10.90;99.90
7317;DHT22;3699;51.462;6.696;2023-04-24T04:43:03;10.70;99.90
7317;DHT22;3699;51.462;6.696;2023-04-24T04:45:29;10.80;99.90
7317;DHT22;3699;51.462;6.696;2023-04-24T04:47:58;10.80;99.90
7317;DHT22;3699;51.462;6.696;2023-04-24T04:50:27;10.80;99.90
7317;DHT22;3699;51.462;6.696;2023-04-24T05:00:16;10.90;99.90
7317;DHT22;3699;51.462;6.696;2023-04-24T05:02:43;11.40;99.90
7317;DHT22;3699;51.462;6.696;2023-04-24T05:07:38;10.80;99.90
7317;DHT22;3699;51.462;6.696;2023-04-24T05:10:06;10.60;99.90
7317;DHT22;3699;51.462;6.696;2023-04-24T05:12:33;10.90;99.90
7317;DHT22;3699;51.462;6.696;2023-04-24T05:14:59;10.80;99.90
7317;DHT22;3699;51.462;6.696;2023-04-24T05:17:26;10.80;99.90
7317;DHT22;3699;51.462;6.696;2023-04-24T05:19:53;10.60;99.90
7317;DHT22;3699;51.462;6.696;2023-04-24T05:22:19;10.60;99.90
7317;DHT22;3699;51.462;6.696;2023-04-24T05:24:48;10.70;99.90
7317;DHT22;3699;51.462;6.696;2023-04-24T05:29:42;10.70;99.90
7317;DHT22;3699;51.462;6.696;2023-04-24T05:34:37;10.70;99.90
7317;DHT22;3699;51.462;6.696;2023-04-24T05:37:03;10.80;99.90
7317;DHT22;3699;51.462;6.696;2023-04-24T05:39:33;11.20;99.90
7317;DHT22;3699;51.462;6.696;2023-04-24T05:42:02;10.50;99.90
7317;DHT22;3699;51.462;6.696;2023-04-24T05:46:57;10.70;99.90
7317;DHT22;3699;51.462;6.696;2023-04-24T05:49:23;10.60;99.90
7317;DHT22;3699;51.462;6.696;2023-04-24T05:54:17;10.40;99.90
7317;DHT22;3699;51.462;6.696;2023-04-24T05:56:44;10.60;99.90
7317;DHT22;3699;51.462;6.696;2023-04-24T05:59:13;10.70;99.90
7317;DHT22;3699;51.462;6.696;2023-04-24T06:01:39;10.90;99.90
7317;DHT22;3699;51.462;6.696;2023-04-24T06:04:06;10.80;99.90
7317;DHT22;3699;51.462;6.696;2023-04-24T06:06:33;10.90;99.90
7317;DHT22;3699;51.462;6.696;2023-04-24T06:09:01;11.20;99.90
7317;DHT22;3699;51.462;6.696;2023-04-24T06:11:28;11.10;99.90
7317;DHT22;3699;51.462;6.696;2023-04-24T06:13:55;10.60;99.90
7317;DHT22;3699;51.462;6.696;2023-04-24T06:16:23;10.80;99.90
7317;DHT22;3699;51.462;6.696;2023-04-24T06:18:49;10.80;99.90
7317;DHT22;3699;51.462;6.696;2023-04-24T06:21:17;11.00;99.90
7317;DHT22;3699;51.462;6.696;2023-04-24T06:23:43;10.80;99.90
7317;DHT22;3699;51.462;6.696;2023-04-24T06:26:11;10.80;99.90
7317;DHT22;3699;51.462;6.696;2023-04-24T06:28:38;10.90;99.90
7317;DHT22;3699;51.462;6.696;2023-04-24T06:31:05;10.70;99.90
7317;DHT22;3699;51.462;6.696;2023-04-24T06:33:33;10.80;99.90
7317;DHT22;3699;51.462;6.696;2023-04-24T06:36:00;10.90;99.90
7317;DHT22;3699;51.462;6.696;2023-04-24T06:38:26;10.90;99.90
7317;DHT22;3699;51.462;6.696;2023-04-24T06:40:55;10.90;99.90
7317;DHT22;3699;51.462;6.696;2023-04-24T06:43:21;10.60;99.90
7317;DHT22;3699;51.462;6.696;2023-04-24T06:48:15;10.90;99.90
7317;DHT22;3699;51.462;6.696;2023-04-24T06:50:43;10.70;99.90
7317;DHT22;3699;51.462;6.696;2023-04-24T06:55:39;10.60;99.90
7317;DHT22;3699;51.462;6.696;2023-04-24T06:58:06;10.50;99.90
7317;DHT22;3699;51.462;6.696;2023-04-24T07:00:33;10.70;99.90
7317;DHT22;3699;51.462;6.696;2023-04-24T07:05:27;10.80;99.90
7317;DHT22;3699;51.462;6.696;2023-04-24T07:07:56;10.60;99.90
7317;DHT22;3699;51.462;6.696;2023-04-24T07:10:24;10.80;99.90
7317;DHT22;3699;51.462;6.696;2023-04-24T07:12:52;10.80;99.90
7317;DHT22;3699;51.462;6.696;2023-04-24T07:15:19;10.70;99.90
7317;DHT22;3699;51.462;6.696;2023-04-24T07:17:46;10.80;99.90
7317;DHT22;3699;51.462;6.696;2023-04-24T07:25:09;10.90;99.90
7317;DHT22;3699;51.462;6.696;2023-04-24T07:27:36;10.90;99.90
7317;DHT22;3699;51.462;6.696;2023-04-24T07:30:03;11.40;99.90
7317;DHT22;3699;51.462;6.696;2023-04-24T07:34:57;10.30;99.90
7317;DHT22;3699;51.462;6.696;2023-04-24T07:37:24;10.90;99.90
7317;DHT22;3699;51.462;6.696;2023-04-24T07:39:51;10.80;99.90
7317;DHT22;3699;51.462;6.696;2023-04-24T07:42:19;10.70;99.90
7317;DHT22;3699;51.462;6.696;2023-04-24T07:44:46;10.80;99.90
7317;DHT22;3699;51.462;6.696;2023-04-24T07:52:08;10.80;99.90
7317;DHT22;3699;51.462;6.696;2023-04-24T07:54:35;10.40;99.90
7317;DHT22;3699;51.462;6.696;2023-04-24T07:59:31;10.30;99.90
7317;DHT22;3699;51.462;6.696;2023-04-24T08:01:57;10.30;99.90
7317;DHT22;3699;51.462;6.696;2023-04-24T08:06:51;10.70;99.90
7317;DHT22;3699;51.462;6.696;2023-04-24T08:09:18;10.50;99.90
7317;DHT22;3699;51.462;6.696;2023-04-24T08:11:45;10.40;99.90
7317;DHT22;3699;51.462;6.696;2023-04-24T08:14:11;10.40;99.90
7317;DHT22;3699;51.462;6.696;2023-04-24T08:16:41;10.50;99.90
7317;DHT22;3699;51.462;6.696;2023-04-24T08:19:08;10.50;99.90
7317;DHT22;3699;51.462;6.696;2023-04-24T08:21:35;10.50;99.90
7317;DHT22;3699;51.462;6.696;2023-04-24T08:24:02;10.60;99.90
7317;DHT22;3699;51.462;6.696;2023-04-24T08:26:33;10.60;99.90
7317;DHT22;3699;51.462;6.696;2023-04-24T08:29:00;10.50;99.90
7317;DHT22;3699;51.462;6.696;2023-04-24T08:31:26;10.70;99.90
7317;DHT22;3699;51.462;6.696;2023-04-24T08:33:55;10.80;99.90
7317;DHT22;3699;51.462;6.696;2023-04-24T08:36:21;10.60;99.90
7317;DHT22;3699;51.462;6.696;2023-04-24T08:38:48;10.70;99.90
7317;DHT22;3699;51.462;6.696;2023-04-24T08:41:15;11.10;99.90
7317;DHT22;3699;51.462;6.696;2023-04-24T08:43:45;11.10;99.90
7317;DHT22;3699;51.462;6.696;2023-04-24T08:46:13;11.20;99.90
7317;DHT22;3699;51.462;6.696;2023-04-24T08:48:42;11.30;99.90
7317;DHT22;3699;51.462;6.696;2023-04-24T08:51:10;11.20;99.90
7317;DHT22;3699;51.462;6.696;2023-04-24T08:53:37;11.30;99.90
7317;DHT22;3699;51.462;6.696;2023-04-24T08:56:04;10.90;99.90
7317;DHT22;3699;51.462;6.696;2023-04-24T09:00:58;11.30;99.90
7317;DHT22;3699;51.462;6.696;2023-04-24T09:03:27;11.00;99.90
7317;DHT22;3699;51.462;6.696;2023-04-24T09:05:55;10.90;99.90
7317;DHT22;3699;51.462;6.696;2023-04-24T09:08:24;10.90;99.90
7317;DHT22;3699;51.462;6.696;2023-04-24T09:10:51;10.90;99.90
7317;DHT22;3699;51.462;6.696;2023-04-24T09:13:19;10.70;99.90
7317;DHT22;3699;51.462;6.696;2023-04-24T09:15:46;10.90;99.90
7317;DHT22;3699;51.462;6.696;2023-04-24T09:20:57;10.70;99.90
7317;DHT22;3699;51.462;6.696;2023-04-24T09:23:28;10.70;99.90
7317;DHT22;3699;51.462;6.696;2023-04-24T09:25:55;10.90;99.90
7317;DHT22;3699;51.462;6.696;2023-04-24T09:28:26;10.70;99.90
7317;DHT22;3699;51.462;6.696;2023-04-24T09:31:03;11.10;99.90
7317;DHT22;3699;51.462;6.696;2023-04-24T09:33:30;10.90;99.90
7317;DHT22;3699;51.462;6.696;2023-04-24T09:35:57;10.70;99.90
7317;DHT22;3699;51.462;6.696;2023-04-24T09:38:32;10.70;99.90
7317;DHT22;3699;51.462;6.696;2023-04-24T09:41:00;10.80;99.90
7317;DHT22;3699;51.462;6.696;2023-04-24T09:43:28;10.70;99.90
7317;DHT22;3699;51.462;6.696;2023-04-24T09:45:56;10.90;99.90
7317;DHT22;3699;51.462;6.696;2023-04-24T09:48:31;10.60;99.90
7317;DHT22;3699;51.462;6.696;2023-04-24T09:53:26;10.80;99.90
7317;DHT22;3699;51.462;6.696;2023-04-24T09:55:54;10.70;99.90
7317;DHT22;3699;51.462;6.696;2023-04-24T09:58:24;10.70;99.90
7317;DHT22;3699;51.462;6.696;2023-04-24T10:00:54;10.70;99.90
7317;DHT22;3699;51.462;6.696;2023-04-24T10:03:24;10.60;99.90
7317;DHT22;3699;51.462;6.696;2023-04-24T10:05:52;11.00;99.90
7317;DHT22;3699;51.462;6.696;2023-04-24T10:08:19;10.70;99.90
7317;DHT22;3699;51.462;6.696;2023-04-24T10:10:46;11.10;99.90
7317;DHT22;3699;51.462;6.696;2023-04-24T10:13:15;11.10;99.90
7317;DHT22;3699;51.462;6.696;2023-04-24T10:15:42;11.10;99.90
7317;DHT22;3699;51.462;6.696;2023-04-24T10:18:09;11.40;99.90
7317;DHT22;3699;51.462;6.696;2023-04-24T10:20:39;11.30;99.90
7317;DHT22;3699;51.462;6.696;2023-04-24T10:25:35;11.30;99.90
7317;DHT22;3699;51.462;6.696;2023-04-24T10:28:03;11.30;99.90
7317;DHT22;3699;51.462;6.696;2023-04-24T10:30:32;11.50;99.90
7317;DHT22;3699;51.462;6.696;2023-04-24T10:33:00;11.20;99.90
7317;DHT22;3699;51.462;6.696;2023-04-24T10:35:30;10.70;99.90
7317;DHT22;3699;51.462;6.696;2023-04-24T10:38:01;11.10;99.90
7317;DHT22;3699;51.462;6.696;2023-04-24T10:40:31;11.20;99.90
7317;DHT22;3699;51.462;6.696;2023-04-24T10:42:59;11.40;99.90
7317;DHT22;3699;51.462;6.696;2023-04-24T10:47:57;11.80;99.90
7317;DHT22;3699;51.462;6.696;2023-04-24T10:50:26;11.40;99.90
7317;DHT22;3699;51.462;6.696;2023-04-24T10:55:46;11.60;99.90
7317;DHT22;3699;51.462;6.696;2023-04-24T10:58:13;11.90;99.90
7317;DHT22;3699;51.462;6.696;2023-04-24T11:03:25;12.00;99.90
7317;DHT22;3699;51.462;6.696;2023-04-24T11:05:57;12.20;99.90
7317;DHT22;3699;51.462;6.696;2023-04-24T11:08:26;12.60;99.90
7317;DHT22;3699;51.462;6.696;2023-04-24T11:10:59;12.40;99.90
7317;DHT22;3699;51.462;6.696;2023-04-24T11:13:28;12.40;99.90
7317;DHT22;3699;51.462;6.696;2023-04-24T11:16:20;12.20;99.90
7317;DHT22;3699;51.462;6.696;2023-04-24T11:18:52;12.30;99.90
7317;DHT22;3699;51.462;6.696;2023-04-24T11:21:20;12.00;99.90
7317;DHT22;3699;51.462;6.696;2023-04-24T11:23:47;11.50;99.90
7317;DHT22;3699;51.462;6.696;2023-04-24T11:26:18;11.70;99.90
7317;DHT22;3699;51.462;6.696;2023-04-24T11:28:46;11.20;99.90
7317;DHT22;3699;51.462;6.696;2023-04-24T11:31:37;11.00;99.90
7317;DHT22;3699;51.462;6.696;2023-04-24T11:34:09;11.30;99.90
7317;DHT22;3699;51.462;6.696;2023-04-24T11:36:36;11.30;99.90
7317;DHT22;3699;51.462;6.696;2023-04-24T11:43:57;12.20;99.90
7317;DHT22;3699;51.462;6.696;2023-04-24T11:46:27;12.50;99.90
7317;DHT22;3699;51.462;6.696;2023-04-24T11:48:55;13.00;99.90
7317;DHT22;3699;51.462;6.696;2023-04-24T11:51:24;12.80;99.90
7317;DHT22;3699;51.462;6.696;2023-04-24T11:53:52;12.90;99.90
7317;DHT22;3699;51.462;6.696;2023-04-24T11:56:19;13.40;99.90
7317;DHT22;3699;51.462;6.696;2023-04-24T11:58:48;13.30;99.90
7317;DHT22;3699;51.462;6.696;2023-04-24T12:01:15;13.30;99.90
7317;DHT22;3699;51.462;6.696;2023-04-24T12:06:12;13.00;99.90
7317;DHT22;3699;51.462;6.696;2023-04-24T12:08:40;12.80;99.90
7317;DHT22;3699;51.462;6.696;2023-04-24T12:11:07;12.60;99.90
7317;DHT22;3699;51.462;6.696;2023-04-24T12:13:35;12.60;99.90
7317;DHT22;3699;51.462;6.696;2023-04-24T12:16:02;12.00;99.90
7317;DHT22;3699;51.462;6.696;2023-04-24T12:21:19;12.00;99.90
7317;DHT22;3699;51.462;6.696;2023-04-24T12:23:47;12.30;99.90
7317;DHT22;3699;51.462;6.696;2023-04-24T12:26:17;12.50;99.90
7317;DHT22;3699;51.462;6.696;2023-04-24T12:28:47;12.40;99.90
7317;DHT22;3699;51.462;6.696;2023-04-24T12:31:14;12.40;99.90
7317;DHT22;3699;51.462;6.696;2023-04-24T12:33:42;12.70;99.90
7317;DHT22;3699;51.462;6.696;2023-04-24T12:36:10;12.50;99.90
7317;DHT22;3699;51.462;6.696;2023-04-24T12:41:09;12.20;99.90
7317;DHT22;3699;51.462;6.696;2023-04-24T12:43:36;12.80;99.90
7317;DHT22;3699;51.462;6.696;2023-04-24T12:46:03;12.80;99.90
7317;DHT22;3699;51.462;6.696;2023-04-24T12:48:31;13.10;99.90
7317;DHT22;3699;51.462;6.696;2023-04-24T12:51:04;13.50;99.90
7317;DHT22;3699;51.462;6.696;2023-04-24T12:53:31;13.60;99.90
7317;DHT22;3699;51.462;6.696;2023-04-24T12:55:57;13.70;99.90
7317;DHT22;3699;51.462;6.696;2023-04-24T12:58:26;13.30;99.90
7317;DHT22;3699;51.462;6.696;2023-04-24T13:00:52;13.40;99.90
7317;DHT22;3699;51.462;6.696;2023-04-24T13:08:15;13.30;99.90
7317;DHT22;3699;51.462;6.696;2023-04-24T13:10:41;13.40;99.90
7317;DHT22;3699;51.462;6.696;2023-04-24T13:13:08;13.20;99.90
7317;DHT22;3699;51.462;6.696;2023-04-24T13:15:36;13.30;99.90
7317;DHT22;3699;51.462;6.696;2023-04-24T13:18:03;13.40;99.90
7317;DHT22;3699;51.462;6.696;2023-04-24T13:20:30;13.30;99.90
7317;DHT22;3699;51.462;6.696;2023-04-24T13:22:57;13.40;99.90
7317;DHT22;3699;51.462;6.696;2023-04-24T13:25:24;13.10;99.90
7317;DHT22;3699;51.462;6.696;2023-04-24T13:30:17;12.70;99.90
7317;DHT22;3699;51.462;6.696;2023-04-24T13:32:45;12.90;99.90
7317;DHT22;3699;51.462;6.696;2023-04-24T13:37:39;12.80;99.90
7317;DHT22;3699;51.462;6.696;2023-04-24T13:40:07;13.10;99.90
7317;DHT22;3699;51.462;6.696;2023-04-24T13:45:01;12.40;99.90
7317;DHT22;3699;51.462;6.696;2023-04-24T13:49:58;13.20;99.90
7317;DHT22;3699;51.462;6.696;2023-04-24T13:54:52;13.40;99.90
7317;DHT22;3699;51.462;6.696;2023-04-24T13:59:45;12.90;99.90
7317;DHT22;3699;51.462;6.696;2023-04-24T14:02:12;13.70;99.90
7317;DHT22;3699;51.462;6.696;2023-04-24T14:04:39;14.30;99.90
7317;DHT22;3699;51.462;6.696;2023-04-24T14:07:07;13.00;99.90
7317;DHT22;3699;51.462;6.696;2023-04-24T14:12:01;13.50;99.90
7317;DHT22;3699;51.462;6.696;2023-04-24T14:14:29;13.70;99.90
7317;DHT22;3699;51.462;6.696;2023-04-24T14:16:56;13.90;99.90
7317;DHT22;3699;51.462;6.696;2023-04-24T14:19:23;13.40;99.90
7317;DHT22;3699;51.462;6.696;2023-04-24T14:24:18;13.00;99.90
7317;DHT22;3699;51.462;6.696;2023-04-24T14:26:45;12.80;99.90
7317;DHT22;3699;51.462;6.696;2023-04-24T14:31:39;12.70;99.90
7317;DHT22;3699;51.462;6.696;2023-04-24T14:34:05;12.40;99.90
7317;DHT22;3699;51.462;6.696;2023-04-24T14:36:51;12.50;99.90
7317;DHT22;3699;51.462;6.696;2023-04-24T14:39:20;12.20;99.90
7317;DHT22;3699;51.462;6.696;2023-04-24T14:41:48;12.00;99.90
7317;DHT22;3699;51.462;6.696;2023-04-24T14:44:15;12.20;99.90
7317;DHT22;3699;51.462;6.696;2023-04-24T14:46:42;12.20;99.90
7317;DHT22;3699;51.462;6.696;2023-04-24T14:49:08;11.90;99.90
7317;DHT22;3699;51.462;6.696;2023-04-24T14:51:38;12.10;99.90
7317;DHT22;3699;51.462;6.696;2023-04-24T14:54:04;12.20;99.90
7317;DHT22;3699;51.462;6.696;2023-04-24T14:56:33;12.20;99.90
7317;DHT22;3699;51.462;6.696;2023-04-24T14:58:59;12.50;99.90
7317;DHT22;3699;51.462;6.696;2023-04-24T15:01:26;12.40;99.90
7317;DHT22;3699;51.462;6.696;2023-04-24T15:08:47;13.00;99.90
7317;DHT22;3699;51.462;6.696;2023-04-24T15:11:14;13.00;99.90
7317;DHT22;3699;51.462;6.696;2023-04-24T15:13:42;13.10;99.90
7317;DHT22;3699;51.462;6.696;2023-04-24T15:16:10;12.90;99.90
7317;DHT22;3699;51.462;6.696;2023-04-24T15:23:31;13.10;99.90
7317;DHT22;3699;51.462;6.696;2023-04-24T15:26:00;13.00;99.90
7317;DHT22;3699;51.462;6.696;2023-04-24T15:28:27;13.50;99.90
7317;DHT22;3699;51.462;6.696;2023-04-24T15:30:55;12.90;99.90
7317;DHT22;3699;51.462;6.696;2023-04-24T15:38:16;12.80;99.90
7317;DHT22;3699;51.462;6.696;2023-04-24T15:40:43;12.70;99.90
7317;DHT22;3699;51.462;6.696;2023-04-24T15:48:06;12.20;99.90
7317;DHT22;3699;51.462;6.696;2023-04-24T15:50:33;12.80;99.90
7317;DHT22;3699;51.462;6.696;2023-04-24T15:52:59;13.00;99.90
7317;DHT22;3699;51.462;6.696;2023-04-24T15:55:27;12.70;99.90
7317;DHT22;3699;51.462;6.696;2023-04-24T15:57:54;12.70;99.90
7317;DHT22;3699;51.462;6.696;2023-04-24T16:00:21;12.70;99.90
7317;DHT22;3699;51.462;6.696;2023-04-24T16:05:17;12.80;99.90
7317;DHT22;3699;51.462;6.696;2023-04-24T16:10:11;12.70;99.90
7317;DHT22;3699;51.462;6.696;2023-04-24T16:15:06;12.80;99.90
7317;DHT22;3699;51.462;6.696;2023-04-24T16:17:33;12.60;99.90
7317;DHT22;3699;51.462;6.696;2023-04-24T16:19:59;12.70;99.90
7317;DHT22;3699;51.462;6.696;2023-04-24T16:22:28;12.60;99.90
7317;DHT22;3699;51.462;6.696;2023-04-24T16:24:54;12.60;99.90
7317;DHT22;3699;51.462;6.696;2023-04-24T16:27:23;12.70;99.90
7317;DHT22;3699;51.462;6.696;2023-04-24T16:32:16;12.50;99.90
7317;DHT22;3699;51.462;6.696;2023-04-24T16:34:43;12.50;99.90
7317;DHT22;3699;51.462;6.696;2023-04-24T16:39:39;12.60;99.90
7317;DHT22;3699;51.462;6.696;2023-04-24T16:42:09;12.30;99.90
7317;DHT22;3699;51.462;6.696;2023-04-24T16:44:37;12.10;99.90
7317;DHT22;3699;51.462;6.696;2023-04-24T16:47:04;12.30;99.90
7317;DHT22;3699;51.462;6.696;2023-04-24T16:51:59;11.90;99.90
7317;DHT22;3699;51.462;6.696;2023-04-24T16:56:56;11.60;99.90
7317;DHT22;3699;51.462;6.696;2023-04-24T16:59:22;11.90;99.90
7317;DHT22;3699;51.462;6.696;2023-04-24T17:01:49;11.70;99.90
7317;DHT22;3699;51.462;6.696;2023-04-24T17:04:16;11.60;99.90
7317;DHT22;3699;51.462;6.696;2023-04-24T17:06:43;12.00;99.90
7317;DHT22;3699;51.462;6.696;2023-04-24T17:14:07;11.70;99.90
7317;DHT22;3699;51.462;6.696;2023-04-24T17:16:34;11.60;99.90
7317;DHT22;3699;51.462;6.696;2023-04-24T17:19:02;11.60;99.90
7317;DHT22;3699;51.462;6.696;2023-04-24T17:23:57;11.80;99.90
7317;DHT22;3699;51.462;6.696;2023-04-24T17:26:24;11.60;99.90
7317;DHT22;3699;51.462;6.696;2023-04-24T17:28:52;11.80;99.90
7317;DHT22;3699;51.462;6.696;2023-04-24T17:31:21;11.70;99.90
7317;DHT22;3699;51.462;6.696;2023-04-24T17:33:48;11.60;99.90
7317;DHT22;3699;51.462;6.696;2023-04-24T17:36:15;11.60;99.90
7317;DHT22;3699;51.462;6.696;2023-04-24T17:43:39;11.60;99.90
7317;DHT22;3699;51.462;6.696;2023-04-24T17:46:10;11.10;99.90
7317;DHT22;3699;51.462;6.696;2023-04-24T17:48:39;11.40;99.90
7317;DHT22;3699;51.462;6.696;2023-04-24T17:51:06;11.30;99.90
7317;DHT22;3699;51.462;6.696;2023-04-24T17:53:32;11.30;99.90
7317;DHT22;3699;51.462;6.696;2023-04-24T17:58:28;11.10;99.90
7317;DHT22;3699;51.462;6.696;2023-04-24T18:00:55;10.90;99.90
7317;DHT22;3699;51.462;6.696;2023-04-24T18:05:50;11.20;99.90
7317;DHT22;3699;51.462;6.696;2023-04-24T18:08:17;10.80;99.90
7317;DHT22;3699;51.462;6.696;2023-04-24T18:13:11;10.70;99.90
7317;DHT22;3699;51.462;6.696;2023-04-24T18:15:38;11.10;99.90
7317;DHT22;3699;51.462;6.696;2023-04-24T18:18:07;10.60;99.90
7317;DHT22;3699;51.462;6.696;2023-04-24T18:23:03;10.60;99.90
7317;DHT22;3699;51.462;6.696;2023-04-24T18:25:30;10.40;99.90
7317;DHT22;3699;51.462;6.696;2023-04-24T18:32:51;10.30;99.90
7317;DHT22;3699;51.462;6.696;2023-04-24T18:37:46;10.40;99.90
7317;DHT22;3699;51.462;6.696;2023-04-24T18:40:14;10.10;99.90
7317;DHT22;3699;51.462;6.696;2023-04-24T18:42:41;10.00;99.90
7317;DHT22;3699;51.462;6.696;2023-04-24T18:45:09;10.40;99.90
7317;DHT22;3699;51.462;6.696;2023-04-24T18:50:03;9.90;99.90
7317;DHT22;3699;51.462;6.696;2023-04-24T18:52:30;9.80;99.90
7317;DHT22;3699;51.462;6.696;2023-04-24T18:54:57;9.80;99.90
7317;DHT22;3699;51.462;6.696;2023-04-24T18:57:27;9.70;99.90
7317;DHT22;3699;51.462;6.696;2023-04-24T19:02:21;9.60;99.90
7317;DHT22;3699;51.462;6.696;2023-04-24T19:04:49;9.50;99.90
7317;DHT22;3699;51.462;6.696;2023-04-24T19:07:16;9.60;99.90
7317;DHT22;3699;51.462;6.696;2023-04-24T19:09:43;9.70;99.90
7317;DHT22;3699;51.462;6.696;2023-04-24T19:12:10;9.50;99.90
7317;DHT22;3699;51.462;6.696;2023-04-24T19:14:38;9.50;99.90
7317;DHT22;3699;51.462;6.696;2023-04-24T19:17:05;9.70;99.90
7317;DHT22;3699;51.462;6.696;2023-04-24T19:19:33;9.80;99.90
7317;DHT22;3699;51.462;6.696;2023-04-24T19:22:00;9.40;99.90
7317;DHT22;3699;51.462;6.696;2023-04-24T19:24:27;9.50;99.90
7317;DHT22;3699;51.462;6.696;2023-04-24T19:26:54;9.30;99.90
7317;DHT22;3699;51.462;6.696;2023-04-24T19:29:21;9.70;99.90
7317;DHT22;3699;51.462;6.696;2023-04-24T19:31:49;9.80;99.90
7317;DHT22;3699;51.462;6.696;2023-04-24T19:36:46;9.70;99.90
7317;DHT22;3699;51.462;6.696;2023-04-24T19:39:12;9.60;99.90
7317;DHT22;3699;51.462;6.696;2023-04-24T19:41:39;9.60;99.90
7317;DHT22;3699;51.462;6.696;2023-04-24T19:44:06;9.50;99.90
7317;DHT22;3699;51.462;6.696;2023-04-24T19:46:33;9.60;99.90
7317;DHT22;3699;51.462;6.696;2023-04-24T19:49:01;9.80;99.90
7317;DHT22;3699;51.462;6.696;2023-04-24T19:51:27;9.80;99.90
7317;DHT22;3699;51.462;6.696;2023-04-24T19:53:54;9.80;99.90
7317;DHT22;3699;51.462;6.696;2023-04-24T19:56:21;9.60;99.90
7317;DHT22;3699;51.462;6.696;2023-04-24T19:58:47;10.00;99.90
7317;DHT22;3699;51.462;6.696;2023-04-24T20:01:14;9.30;99.90
7317;DHT22;3699;51.462;6.696;2023-04-24T20:06:09;9.40;99.90
7317;DHT22;3699;51.462;6.696;2023-04-24T20:08:36;9.40;99.90
7317;DHT22;3699;51.462;6.696;2023-04-24T20:11:04;9.10;99.90